Terminal Aerodrome Forecast
Issued by NWS

Home | Current Version | Previous Version | Text Only | Print | Product List | Glossary On
Versions: 1 2 3 4 5 6 7 8 9 10 11 12 13
000
FTUS43 KMPX 191739
TAFRNH
TAF
KRNH 191739Z 1918/2018 18010KT P6SM OVC015
     FM192100 26012KT 6SM -RA OVC018
     FM200000 31012G20KT 5SM RA BR OVC015
      TEMPO 2002/2006 3SM +RA BR
     FM200900 31018G27KT P6SM OVC025
     FM201500 30021G32KT P6SM BKN035=

USA.gov is the U.S. government's official web portal to all federal, state and local government web resources and services.